createdAt,value
2023-02-23T00:02:07.949Z,58.64
2023-02-23T00:04:36.868Z,58.64
2023-02-23T00:07:06.358Z,58.64
2023-02-23T00:09:36.633Z,58.60
2023-02-23T00:12:09.197Z,58.66
2023-02-23T00:14:37.962Z,58.47
2023-02-23T00:17:10.796Z,58.50
2023-02-23T00:19:38.025Z,58.44
2023-02-23T00:22:06.479Z,58.24
2023-02-23T00:24:33.543Z,58.33
2023-02-23T00:27:06.207Z,58.39
2023-02-23T00:29:39.528Z,58.30
2023-02-23T00:32:07.145Z,58.09
2023-02-23T00:34:37.281Z,58.00
2023-02-23T00:37:04.742Z,57.81
2023-02-23T00:39:31.886Z,57.74
2023-02-23T00:42:03.655Z,57.67
2023-02-23T00:44:33.982Z,57.46
2023-02-23T00:47:02.410Z,57.46
2023-02-23T00:49:29.570Z,57.44
2023-02-23T00:51:56.703Z,57.39
2023-02-23T00:54:23.836Z,57.14
2023-02-23T00:56:51.780Z,57.04
2023-02-23T00:59:20.140Z,56.88
2023-02-23T01:01:47.701Z,57.03
2023-02-23T01:04:15.282Z,56.94
2023-02-23T01:06:43.241Z,57.12
2023-02-23T01:09:16.066Z,57.07
2023-02-23T01:11:46.800Z,57.25
2023-02-23T01:14:15.151Z,57.03
2023-02-23T01:16:42.289Z,56.98
2023-02-23T01:19:11.043Z,56.99
2023-02-23T01:21:42.200Z,56.62
2023-02-23T01:24:11.842Z,56.85
2023-02-23T01:26:42.475Z,56.74
2023-02-23T01:29:15.686Z,56.72
2023-02-23T01:31:53.162Z,56.85
2023-02-23T01:34:23.921Z,56.56
2023-02-23T01:36:51.185Z,56.24
2023-02-23T01:39:20.685Z,56.34
2023-02-23T01:41:48.510Z,56.38
2023-02-23T01:44:15.580Z,56.71
2023-02-23T01:46:46.167Z,56.29
2023-02-23T01:49:21.775Z,56.26
2023-02-23T01:52:00.466Z,56.22
2023-02-23T01:54:36.366Z,56.15
2023-02-23T01:57:05.038Z,55.97
2023-02-23T01:59:39.579Z,55.97
2023-02-23T02:02:07.777Z,55.89
2023-02-23T02:04:46.793Z,55.89
2023-02-23T02:07:20.360Z,56.15
2023-02-23T02:10:10.191Z,55.96
2023-02-23T02:12:44.290Z,55.85
2023-02-23T02:15:17.302Z,55.80
2023-02-23T02:18:18.662Z,55.58
2023-02-23T02:20:52.495Z,55.76
2023-02-23T02:24:00.868Z,55.84
2023-02-23T02:26:52.740Z,55.51
2023-02-23T02:30:13.532Z,55.51
2023-02-23T02:33:19.161Z,55.38
2023-02-23T02:36:17.890Z,55.53
2023-02-23T02:39:23.919Z,55.25
2023-02-23T02:42:18.034Z,55.38
2023-02-23T02:45:33.397Z,55.51
2023-02-23T02:48:25.815Z,55.30
2023-02-23T02:51:00.436Z,55.25
2023-02-23T02:53:41.599Z,55.31
2023-02-23T02:56:09.816Z,55.08
2023-02-23T02:58:39.131Z,55.32
2023-02-23T03:01:33.208Z,55.46
2023-02-23T03:04:38.351Z,55.29
2023-02-23T03:07:39.572Z,55.55
2023-02-23T03:10:41.058Z,55.41
2023-02-23T03:14:13.005Z,55.62
2023-02-23T03:17:03.108Z,55.60
2023-02-23T03:19:55.098Z,55.36
2023-02-23T03:22:47.187Z,55.26
2023-02-23T03:26:00.294Z,55.46
2023-02-23T03:28:52.403Z,55.49
2023-02-23T03:32:05.549Z,55.51
2023-02-23T03:35:28.557Z,55.49
2023-02-23T03:38:46.555Z,55.45
2023-02-23T03:41:34.200Z,55.39
2023-02-23T03:44:29.338Z,55.39
2023-02-23T03:47:18.206Z,55.67
2023-02-23T03:50:08.344Z,55.49
2023-02-23T03:53:12.985Z,55.40
2023-02-23T03:56:06.997Z,55.05
2023-02-23T03:59:08.534Z,55.48
2023-02-23T04:01:56.218Z,55.33
2023-02-23T04:04:43.907Z,55.50
2023-02-23T04:07:32.780Z,55.17
2023-02-23T04:10:18.804Z,55.27
2023-02-23T04:13:18.763Z,55.02
2023-02-23T04:16:01.667Z,55.29
2023-02-23T04:18:33.579Z,55.20
2023-02-23T04:21:01.581Z,55.25
2023-02-23T04:23:40.922Z,55.18
2023-02-23T04:26:08.104Z,55.00
2023-02-23T04:28:35.298Z,55.12
2023-02-23T04:31:02.692Z,55.17
2023-02-23T04:33:29.788Z,55.30
2023-02-23T04:35:56.892Z,55.82
2023-02-23T04:38:24.000Z,55.60
2023-02-23T04:40:51.581Z,55.40
2023-02-23T04:43:18.667Z,55.35
2023-02-23T04:45:46.068Z,55.51
2023-02-23T04:48:13.129Z,55.60
2023-02-23T04:50:40.209Z,55.33
2023-02-23T04:53:07.485Z,55.61
2023-02-23T04:55:34.605Z,55.75
2023-02-23T04:58:02.745Z,55.75
2023-02-23T05:00:30.506Z,55.79
2023-02-23T05:02:58.279Z,56.21
2023-02-23T05:05:25.527Z,56.22
2023-02-23T05:07:54.607Z,56.39
2023-02-23T05:10:21.920Z,56.40
2023-02-23T05:12:49.084Z,56.54
2023-02-23T05:15:16.502Z,56.40
2023-02-23T05:17:43.588Z,56.29
2023-02-23T05:20:12.737Z,56.30
2023-02-23T05:22:40.429Z,56.48
2023-02-23T05:25:10.225Z,56.70
2023-02-23T05:27:38.810Z,56.47
2023-02-23T05:30:08.000Z,56.74
2023-02-23T05:32:35.451Z,56.89
2023-02-23T05:35:02.954Z,56.78
2023-02-23T05:37:30.231Z,57.03
2023-02-23T05:39:57.267Z,57.18
2023-02-23T05:42:24.320Z,57.38
2023-02-23T05:44:51.362Z,57.23
2023-02-23T05:47:18.739Z,57.41
2023-02-23T05:49:46.278Z,57.53
2023-02-23T05:52:13.381Z,57.58
2023-02-23T05:54:40.482Z,57.68
2023-02-23T05:57:08.366Z,57.29
2023-02-23T05:59:35.698Z,57.65
2023-02-23T06:02:05.240Z,57.67
2023-02-23T06:04:33.241Z,57.82
2023-02-23T06:07:00.423Z,57.48
2023-02-23T06:09:27.566Z,57.37
2023-02-23T06:11:55.065Z,57.38
2023-02-23T06:14:22.121Z,57.46
2023-02-23T06:16:49.312Z,57.62
2023-02-23T06:19:16.594Z,57.35
2023-02-23T06:21:44.712Z,57.19
2023-02-23T06:24:12.330Z,57.38
2023-02-23T06:26:39.537Z,57.22
2023-02-23T06:29:06.635Z,56.90
2023-02-23T06:31:34.923Z,56.52
2023-02-23T06:34:02.053Z,56.45
2023-02-23T06:36:29.552Z,56.43
2023-02-23T06:39:00.332Z,55.89
2023-02-23T06:41:27.883Z,55.82
2023-02-23T06:43:55.628Z,55.26
2023-02-23T06:46:23.270Z,55.40
2023-02-23T06:48:55.650Z,54.93
2023-02-23T06:51:23.521Z,54.93
2023-02-23T06:53:52.495Z,54.97
2023-02-23T06:56:19.901Z,54.99
2023-02-23T06:58:48.035Z,54.26
2023-02-23T07:01:16.300Z,54.25
2023-02-23T07:03:43.516Z,53.74
2023-02-23T07:06:10.784Z,53.49
2023-02-23T07:08:38.803Z,53.36
2023-02-23T07:11:11.489Z,52.97
2023-02-23T07:13:39.368Z,52.76
2023-02-23T07:16:07.645Z,52.81
2023-02-23T07:18:35.119Z,53.07
2023-02-23T07:21:02.186Z,53.00
2023-02-23T07:23:29.251Z,52.37
2023-02-23T07:25:59.608Z,52.38
2023-02-23T07:28:28.897Z,52.02
2023-02-23T07:30:59.409Z,52.07
2023-02-23T07:33:26.768Z,52.07
2023-02-23T07:35:53.830Z,51.72
2023-02-23T07:38:20.941Z,51.80
2023-02-23T07:40:51.089Z,51.62
2023-02-23T07:43:20.802Z,51.42
2023-02-23T07:45:48.060Z,51.56
2023-02-23T07:48:15.444Z,51.21
2023-02-23T07:50:43.067Z,51.16
2023-02-23T07:53:11.460Z,51.03
2023-02-23T07:55:39.527Z,50.74
2023-02-23T07:58:07.588Z,50.21
2023-02-23T08:00:36.991Z,50.26
2023-02-23T08:03:04.402Z,49.99
2023-02-23T08:05:31.409Z,50.14
2023-02-23T08:07:59.699Z,50.12
2023-02-23T08:10:26.969Z,49.79
2023-02-23T08:12:54.205Z,49.93
2023-02-23T08:15:21.351Z,49.61
2023-02-23T08:17:48.530Z,49.29
2023-02-23T08:20:15.645Z,49.16
2023-02-23T08:22:49.781Z,49.18
2023-02-23T08:25:18.365Z,48.70
2023-02-23T08:27:45.570Z,48.49
2023-02-23T08:30:14.198Z,48.62
2023-02-23T08:32:41.771Z,48.23
2023-02-23T08:35:11.098Z,47.55
2023-02-23T08:37:38.312Z,47.52
2023-02-23T08:40:06.273Z,47.62
2023-02-23T08:42:33.385Z,47.51
2023-02-23T08:45:01.502Z,47.56
2023-02-23T08:47:28.648Z,47.76
2023-02-23T08:49:55.773Z,47.71
2023-02-23T08:52:24.070Z,47.43
2023-02-23T08:54:51.177Z,47.44
2023-02-23T08:57:18.306Z,47.64
2023-02-23T08:59:45.508Z,47.93
2023-02-23T09:02:14.692Z,47.58
2023-02-23T09:04:42.132Z,46.90
2023-02-23T09:07:14.931Z,46.33
2023-02-23T09:09:42.177Z,46.26
2023-02-23T09:12:09.730Z,46.22
2023-02-23T09:14:37.197Z,46.17
2023-02-23T09:17:04.279Z,45.99
2023-02-23T09:19:31.792Z,45.59
2023-02-23T09:21:58.858Z,45.38
2023-02-23T09:24:25.917Z,45.26
2023-02-23T09:26:54.040Z,45.07
2023-02-23T09:29:21.272Z,44.32
2023-02-23T09:31:48.432Z,44.21
2023-02-23T09:34:15.583Z,44.11
2023-02-23T09:36:42.654Z,43.88
2023-02-23T09:39:09.712Z,43.43
2023-02-23T09:42:25.843Z,42.95
2023-02-23T09:45:03.582Z,42.44
2023-02-23T09:47:30.973Z,41.62
2023-02-23T09:50:02.435Z,40.64
2023-02-23T09:52:41.635Z,40.25
2023-02-23T09:55:14.428Z,39.80
2023-02-23T09:57:48.269Z,39.16
2023-02-23T10:00:27.968Z,39.37
2023-02-23T10:03:18.242Z,39.52
2023-02-23T10:05:56.029Z,39.46
2023-02-23T10:08:40.692Z,39.26
2023-02-23T10:11:28.006Z,38.92
2023-02-23T10:14:04.013Z,38.38
2023-02-23T10:17:10.281Z,38.38
2023-02-23T10:20:05.232Z,37.50
2023-02-23T10:22:35.937Z,37.91
2023-02-23T10:25:11.710Z,37.69
2023-02-23T10:27:44.147Z,37.49
2023-02-23T10:30:34.847Z,38.02
2023-02-23T10:33:42.233Z,38.35
2023-02-23T10:36:19.309Z,38.48
2023-02-23T10:38:47.249Z,37.79
2023-02-23T10:41:15.030Z,37.42
2023-02-23T10:43:42.558Z,37.44
2023-02-23T10:46:21.218Z,38.03
2023-02-23T10:48:51.153Z,38.10
2023-02-23T10:51:25.401Z,37.48
2023-02-23T10:53:53.021Z,37.53
2023-02-23T10:56:22.581Z,37.35
2023-02-23T10:58:58.522Z,37.13
2023-02-23T11:01:49.088Z,37.13
2023-02-23T11:04:26.273Z,36.48
2023-02-23T11:07:19.712Z,35.90
2023-02-23T11:09:48.343Z,35.47
2023-02-23T11:12:22.917Z,35.09
2023-02-23T11:14:56.766Z,34.87
2023-02-23T11:17:32.638Z,34.76
2023-02-23T11:20:30.528Z,34.68
2023-02-23T11:23:03.615Z,34.77
2023-02-23T11:25:37.593Z,34.96
2023-02-23T11:28:05.054Z,34.34
2023-02-23T11:30:37.597Z,33.73
2023-02-23T11:33:12.369Z,33.30
2023-02-23T11:35:39.700Z,32.15
2023-02-23T11:38:27.554Z,31.14
2023-02-23T11:41:12.004Z,30.14
2023-02-23T11:43:48.194Z,29.42
2023-02-23T11:46:15.458Z,29.77
2023-02-23T11:49:07.673Z,29.39
2023-02-23T11:51:40.485Z,27.59
2023-02-23T11:54:22.269Z,27.85
2023-02-23T11:56:55.283Z,0.00
2023-02-23T11:59:30.995Z,27.78
2023-02-23T12:02:26.360Z,28.86
2023-02-23T12:05:17.665Z,29.04
2023-02-23T12:08:03.226Z,30.22
2023-02-23T12:11:04.988Z,29.77
2023-02-23T12:13:36.828Z,29.26
2023-02-23T12:16:12.248Z,29.26
2023-02-23T12:18:59.776Z,28.03
2023-02-23T12:21:56.213Z,28.52
2023-02-23T12:24:37.869Z,28.52
2023-02-23T12:27:14.351Z,28.99
2023-02-23T12:30:22.688Z,28.99
2023-02-23T12:33:01.195Z,29.77
2023-02-23T12:35:58.726Z,28.99
2023-02-23T12:38:54.604Z,29.77
2023-02-23T12:41:48.487Z,29.13
2023-02-23T12:44:38.894Z,28.58
2023-02-23T12:47:37.579Z,29.35
2023-02-23T12:50:30.914Z,28.00
2023-02-23T12:53:22.186Z,28.00
2023-02-23T12:56:35.559Z,28.00
2023-02-23T12:59:14.243Z,27.56
2023-02-23T13:01:58.831Z,28.31
2023-02-23T13:05:16.619Z,28.31
2023-02-23T13:08:12.909Z,28.31
2023-02-23T13:11:05.870Z,33.46
2023-02-23T13:13:55.610Z,34.79
2023-02-23T13:16:27.038Z,35.45
2023-02-23T13:19:24.397Z,35.96
2023-02-23T13:22:28.983Z,36.77
2023-02-23T13:24:59.945Z,37.53
2023-02-23T13:27:37.141Z,38.46
2023-02-23T13:30:09.874Z,39.42
2023-02-23T13:32:39.351Z,40.33
2023-02-23T13:35:15.947Z,40.46
2023-02-23T13:37:48.923Z,40.69
2023-02-23T13:41:17.800Z,40.22
2023-02-23T13:43:57.403Z,40.14
2023-02-23T13:46:37.400Z,40.56
2023-02-23T13:49:28.564Z,40.41
2023-02-23T13:52:23.873Z,40.87
2023-02-23T13:54:58.804Z,40.87
2023-02-23T13:57:28.537Z,41.13
2023-02-23T13:59:55.732Z,41.33
2023-02-23T14:02:28.876Z,41.41
2023-02-23T14:05:25.093Z,41.86
2023-02-23T14:08:04.471Z,41.82
2023-02-23T14:10:41.672Z,41.94
2023-02-23T14:13:17.507Z,41.88
2023-02-23T14:15:49.925Z,42.38
2023-02-23T14:18:25.579Z,42.25
2023-02-23T14:21:02.565Z,43.08
2023-02-23T14:24:03.200Z,43.14
2023-02-23T14:26:30.236Z,43.72
2023-02-23T14:29:25.631Z,43.72
2023-02-23T14:32:11.005Z,44.18
2023-02-23T14:35:02.254Z,44.73
2023-02-23T14:37:40.163Z,45.19
2023-02-23T14:40:15.318Z,45.77
2023-02-23T14:42:47.024Z,46.25
2023-02-23T14:45:28.928Z,46.87
2023-02-23T14:48:10.164Z,48.08
2023-02-23T14:50:39.165Z,49.19
2023-02-23T14:53:19.823Z,49.97
2023-02-23T14:55:47.317Z,49.71
2023-02-23T14:58:33.505Z,50.41
2023-02-23T15:01:00.762Z,50.39
2023-02-23T15:03:27.873Z,50.47
2023-02-23T15:06:00.786Z,50.57
2023-02-23T15:08:30.639Z,50.40
2023-02-23T15:11:02.226Z,50.66
2023-02-23T15:13:39.881Z,50.67
2023-02-23T15:16:12.957Z,50.83
2023-02-23T15:18:43.345Z,50.48
2023-02-23T15:21:20.561Z,50.46
2023-02-23T15:24:06.480Z,50.23
2023-02-23T15:26:38.079Z,50.43
2023-02-23T15:29:13.539Z,50.64
2023-02-23T15:31:52.909Z,50.83
2023-02-23T15:34:26.549Z,50.79
2023-02-23T15:37:11.354Z,50.61
2023-02-23T15:39:53.257Z,51.16
2023-02-23T15:42:32.132Z,51.41
2023-02-23T15:45:02.502Z,51.10
2023-02-23T15:47:35.600Z,51.06
2023-02-23T15:50:36.014Z,51.74
2023-02-23T15:53:37.428Z,51.55
2023-02-23T15:56:27.040Z,51.86
2023-02-23T15:59:02.628Z,52.00
2023-02-23T16:01:32.302Z,52.28
2023-02-23T16:04:07.229Z,52.87
2023-02-23T16:06:45.970Z,53.33
2023-02-23T16:09:21.303Z,54.25
2023-02-23T16:12:01.750Z,54.70
2023-02-23T16:14:55.369Z,54.89
2023-02-23T16:17:57.891Z,55.28
2023-02-23T16:20:38.597Z,55.58
2023-02-23T16:23:34.126Z,55.69
2023-02-23T16:26:17.994Z,56.03
2023-02-23T16:28:46.757Z,56.22
2023-02-23T16:31:25.834Z,56.25
2023-02-23T16:33:57.135Z,55.78
2023-02-23T16:36:36.729Z,56.35
2023-02-23T16:39:10.214Z,54.94
2023-02-23T16:41:37.342Z,55.60
2023-02-23T16:44:06.946Z,55.93
2023-02-23T16:46:53.884Z,55.55
2023-02-23T16:49:23.410Z,55.52
2023-02-23T16:51:52.440Z,55.67
2023-02-23T16:54:19.505Z,54.59
2023-02-23T16:56:47.819Z,54.93
2023-02-23T16:59:18.461Z,55.01
2023-02-23T17:01:46.618Z,54.52
2023-02-23T17:04:16.272Z,54.53
2023-02-23T17:06:45.194Z,54.11
2023-02-23T17:09:12.915Z,54.46
2023-02-23T17:11:42.670Z,54.57
2023-02-23T17:14:19.839Z,54.88
2023-02-23T17:16:46.893Z,55.56
2023-02-23T17:19:15.932Z,56.11
2023-02-23T17:21:42.971Z,56.18
2023-02-23T17:24:10.176Z,56.07
2023-02-23T17:26:37.453Z,56.48
2023-02-23T17:29:04.558Z,56.72
2023-02-23T17:31:32.190Z,56.61
2023-02-23T17:34:00.245Z,56.02
2023-02-23T17:36:30.017Z,55.23
2023-02-23T17:38:58.513Z,55.50
2023-02-23T17:41:27.200Z,55.80
2023-02-23T17:43:54.510Z,55.76
2023-02-23T17:46:21.764Z,55.67
2023-02-23T17:48:48.816Z,55.77
2023-02-23T17:51:17.005Z,55.58
2023-02-23T17:53:44.158Z,55.87
2023-02-23T17:56:11.384Z,55.98
2023-02-23T17:58:40.137Z,56.36
2023-02-23T18:01:08.084Z,56.04
2023-02-23T18:03:37.519Z,55.90
2023-02-23T18:06:08.726Z,56.44
2023-02-23T18:08:36.953Z,56.24
2023-02-23T18:11:04.175Z,56.56
2023-02-23T18:13:33.818Z,57.55
2023-02-23T18:16:10.619Z,58.15
2023-02-23T18:18:44.887Z,58.71
2023-02-23T18:21:16.271Z,58.62
2023-02-23T18:23:43.400Z,58.67
2023-02-23T18:26:15.298Z,59.01
2023-02-23T18:28:44.484Z,59.60
2023-02-23T18:31:23.630Z,59.47
2023-02-23T18:33:54.121Z,59.40
2023-02-23T18:36:28.978Z,59.32
2023-02-23T18:39:01.157Z,59.42
2023-02-23T18:41:30.952Z,59.15
2023-02-23T18:44:04.848Z,59.51
2023-02-23T18:46:32.696Z,60.05
2023-02-23T18:49:01.222Z,60.47
2023-02-23T18:51:28.468Z,60.70
2023-02-23T18:53:55.766Z,60.81
2023-02-23T18:56:28.204Z,60.84
2023-02-23T18:58:59.464Z,60.61
2023-02-23T19:01:33.475Z,60.38
2023-02-23T19:04:02.396Z,60.27
2023-02-23T19:06:30.928Z,60.66
2023-02-23T19:08:59.563Z,60.78
2023-02-23T19:11:32.959Z,60.85
2023-02-23T19:14:03.998Z,60.72
2023-02-23T19:16:34.900Z,60.85
2023-02-23T19:19:04.758Z,61.08
2023-02-23T19:21:31.966Z,60.69
2023-02-23T19:24:01.113Z,60.19
2023-02-23T19:26:30.099Z,59.71
2023-02-23T19:28:58.385Z,59.55
2023-02-23T19:31:26.692Z,60.16
2023-02-23T19:33:56.760Z,60.42
2023-02-23T19:36:29.906Z,60.89
2023-02-23T19:39:10.855Z,60.59
2023-02-23T19:41:39.882Z,60.74
2023-02-23T19:44:07.480Z,60.36
2023-02-23T19:46:35.178Z,60.56
2023-02-23T19:49:03.370Z,60.91
2023-02-23T19:51:31.137Z,61.01
2023-02-23T19:53:59.030Z,60.90
2023-02-23T19:56:28.078Z,61.30
2023-02-23T19:58:57.076Z,61.66
2023-02-23T20:01:27.536Z,62.13
2023-02-23T20:03:56.789Z,62.03
2023-02-23T20:06:27.464Z,61.78
2023-02-23T20:08:55.372Z,61.34
2023-02-23T20:11:23.534Z,61.49
2023-02-23T20:13:52.994Z,61.79
2023-02-23T20:16:21.483Z,61.82
2023-02-23T20:18:48.766Z,61.72
2023-02-23T20:21:20.059Z,61.49
2023-02-23T20:23:47.864Z,61.43
2023-02-23T20:26:20.172Z,61.46
2023-02-23T20:28:47.724Z,61.79
2023-02-23T20:31:18.750Z,61.72
2023-02-23T20:33:46.550Z,61.79
2023-02-23T20:36:13.988Z,62.00
2023-02-23T20:38:41.272Z,62.02
2023-02-23T20:41:08.745Z,62.11
2023-02-23T20:43:37.375Z,61.84
2023-02-23T20:46:05.159Z,61.82
2023-02-23T20:48:34.797Z,62.18
2023-02-23T20:51:03.285Z,62.11
2023-02-23T20:53:30.603Z,61.96
2023-02-23T20:55:58.120Z,61.58
2023-02-23T20:58:25.267Z,61.49
2023-02-23T21:00:57.282Z,61.36
2023-02-23T21:03:25.512Z,61.43
2023-02-23T21:05:53.010Z,61.60
2023-02-23T21:08:21.092Z,61.51
2023-02-23T21:10:50.210Z,61.68
2023-02-23T21:13:18.742Z,61.41
2023-02-23T21:15:46.330Z,61.63
2023-02-23T21:18:13.831Z,61.81
2023-02-23T21:20:41.288Z,61.66
2023-02-23T21:23:08.699Z,61.13
2023-02-23T21:25:35.961Z,60.85
2023-02-23T21:28:03.035Z,60.61
2023-02-23T21:30:30.519Z,60.20
2023-02-23T21:32:59.522Z,60.11
2023-02-23T21:35:26.813Z,60.03
2023-02-23T21:37:53.904Z,60.09
2023-02-23T21:40:22.219Z,60.10
2023-02-23T21:42:50.806Z,60.58
2023-02-23T21:45:19.570Z,61.03
2023-02-23T21:47:48.425Z,60.88
2023-02-23T21:50:18.505Z,60.71
2023-02-23T21:52:48.617Z,60.68
2023-02-23T21:55:24.440Z,61.64
2023-02-23T21:57:52.342Z,62.64
2023-02-23T22:00:21.678Z,62.63
2023-02-23T22:02:49.897Z,63.33
2023-02-23T22:05:19.660Z,62.93
2023-02-23T22:07:53.323Z,63.85
2023-02-23T22:10:22.915Z,64.19
2023-02-23T22:12:56.024Z,64.70
2023-02-23T22:15:27.761Z,64.53
2023-02-23T22:17:56.178Z,63.35
2023-02-23T22:20:23.605Z,63.42
2023-02-23T22:22:50.697Z,63.46
2023-02-23T22:25:19.966Z,63.78
2023-02-23T22:27:47.435Z,64.70
2023-02-23T22:30:15.494Z,64.88
2023-02-23T22:32:43.583Z,64.56
2023-02-23T22:35:11.149Z,64.49
2023-02-23T22:37:39.094Z,64.41
2023-02-23T22:40:12.335Z,64.68
2023-02-23T22:42:39.478Z,64.81
2023-02-23T22:45:07.313Z,64.91
2023-02-23T22:47:35.376Z,64.74
2023-02-23T22:50:02.655Z,64.10
2023-02-23T22:52:30.012Z,64.21
2023-02-23T22:54:57.164Z,63.57
2023-02-23T22:57:24.457Z,64.08
2023-02-23T23:00:00.681Z,63.94
2023-02-23T23:02:32.429Z,64.14
2023-02-23T23:05:01.860Z,64.37
2023-02-23T23:07:31.122Z,64.03
2023-02-23T23:10:02.534Z,63.87
2023-02-23T23:12:29.877Z,64.17
2023-02-23T23:15:01.255Z,64.36
2023-02-23T23:17:32.031Z,64.02
2023-02-23T23:20:10.671Z,63.40
2023-02-23T23:22:38.553Z,62.92
2023-02-23T23:25:14.583Z,63.25
2023-02-23T23:27:44.862Z,62.77
2023-02-23T23:30:13.419Z,63.65
2023-02-23T23:32:41.032Z,63.27
2023-02-23T23:35:11.116Z,63.38
2023-02-23T23:37:41.453Z,64.21
2023-02-23T23:40:17.087Z,64.35
2023-02-23T23:42:46.773Z,63.48
2023-02-23T23:45:18.872Z,63.72
2023-02-23T23:47:47.148Z,64.44
2023-02-23T23:50:16.582Z,63.65
2023-02-23T23:52:45.291Z,64.46
2023-02-23T23:55:15.238Z,64.27
2023-02-23T23:57:43.007Z,63.71
